sensor_id;sensor_type;location;lat;lon;timestamp;P1;durP1;ratioP1;P2;durP2;ratioP2
75135;SDS011;63707;52.212;9.540;2023-05-08T00:01:29;20.50;;;13.32;;
75135;SDS011;63707;52.212;9.540;2023-05-08T00:03:55;19.80;;;12.50;;
75135;SDS011;63707;52.212;9.540;2023-05-08T00:06:20;24.65;;;13.48;;
75135;SDS011;63707;52.212;9.540;2023-05-08T00:08:46;19.00;;;12.88;;
75135;SDS011;63707;52.212;9.540;2023-05-08T00:11:11;22.60;;;13.38;;
75135;SDS011;63707;52.212;9.540;2023-05-08T00:13:37;19.52;;;12.50;;
75135;SDS011;63707;52.212;9.540;2023-05-08T00:16:04;22.27;;;12.68;;
75135;SDS011;63707;52.212;9.540;2023-05-08T00:18:31;18.42;;;12.18;;
75135;SDS011;63707;52.212;9.540;2023-05-08T00:20:57;22.63;;;14.25;;
75135;SDS011;63707;52.212;9.540;2023-05-08T00:23:22;18.65;;;12.35;;
75135;SDS011;63707;52.212;9.540;2023-05-08T00:25:48;18.45;;;12.93;;
75135;SDS011;63707;52.212;9.540;2023-05-08T00:28:13;21.35;;;13.27;;
75135;SDS011;63707;52.212;9.540;2023-05-08T00:30:39;20.55;;;13.05;;
75135;SDS011;63707;52.212;9.540;2023-05-08T00:33:04;21.33;;;13.73;;
75135;SDS011;63707;52.212;9.540;2023-05-08T00:35:31;20.20;;;13.73;;
75135;SDS011;63707;52.212;9.540;2023-05-08T00:37:57;23.17;;;14.02;;
75135;SDS011;63707;52.212;9.540;2023-05-08T00:40:22;20.23;;;13.07;;
75135;SDS011;63707;52.212;9.540;2023-05-08T00:42:48;20.45;;;12.75;;
75135;SDS011;63707;52.212;9.540;2023-05-08T00:45:13;22.92;;;13.32;;
75135;SDS011;63707;52.212;9.540;2023-05-08T00:47:39;21.27;;;13.25;;
75135;SDS011;63707;52.212;9.540;2023-05-08T00:50:05;21.55;;;13.45;;
75135;SDS011;63707;52.212;9.540;2023-05-08T00:52:33;22.30;;;13.65;;
75135;SDS011;63707;52.212;9.540;2023-05-08T00:54:59;23.42;;;14.07;;
75135;SDS011;63707;52.212;9.540;2023-05-08T00:57:26;24.45;;;14.50;;
75135;SDS011;63707;52.212;9.540;2023-05-08T00:59:53;23.35;;;14.35;;
75135;SDS011;63707;52.212;9.540;2023-05-08T01:02:20;23.77;;;13.82;;
75135;SDS011;63707;52.212;9.540;2023-05-08T01:04:45;23.83;;;12.93;;
75135;SDS011;63707;52.212;9.540;2023-05-08T01:07:12;22.55;;;13.82;;
75135;SDS011;63707;52.212;9.540;2023-05-08T01:09:39;22.92;;;13.88;;
75135;SDS011;63707;52.212;9.540;2023-05-08T01:12:07;24.60;;;15.05;;
75135;SDS011;63707;52.212;9.540;2023-05-08T01:14:42;25.67;;;15.15;;
75135;SDS011;63707;52.212;9.540;2023-05-08T01:17:16;25.45;;;14.85;;
75135;SDS011;63707;52.212;9.540;2023-05-08T01:19:53;26.23;;;16.08;;
75135;SDS011;63707;52.212;9.540;2023-05-08T01:22:41;24.75;;;15.02;;
75135;SDS011;63707;52.212;9.540;2023-05-08T01:25:38;24.50;;;14.43;;
75135;SDS011;63707;52.212;9.540;2023-05-08T01:28:37;26.55;;;14.93;;
75135;SDS011;63707;52.212;9.540;2023-05-08T01:31:22;25.48;;;15.23;;
75135;SDS011;63707;52.212;9.540;2023-05-08T01:33:52;29.42;;;16.73;;
75135;SDS011;63707;52.212;9.540;2023-05-08T01:36:28;24.77;;;15.35;;
75135;SDS011;63707;52.212;9.540;2023-05-08T01:39:00;27.27;;;15.43;;
75135;SDS011;63707;52.212;9.540;2023-05-08T01:41:33;24.58;;;15.65;;
75135;SDS011;63707;52.212;9.540;2023-05-08T01:44:06;28.48;;;15.52;;
75135;SDS011;63707;52.212;9.540;2023-05-08T01:46:37;26.63;;;15.57;;
75135;SDS011;63707;52.212;9.540;2023-05-08T01:49:05;26.20;;;16.08;;
75135;SDS011;63707;52.212;9.540;2023-05-08T01:51:35;27.95;;;16.17;;
75135;SDS011;63707;52.212;9.540;2023-05-08T01:54:05;29.80;;;16.95;;
75135;SDS011;63707;52.212;9.540;2023-05-08T01:56:33;29.55;;;16.13;;
75135;SDS011;63707;52.212;9.540;2023-05-08T01:59:02;27.42;;;16.60;;
75135;SDS011;63707;52.212;9.540;2023-05-08T02:01:30;27.60;;;15.82;;
75135;SDS011;63707;52.212;9.540;2023-05-08T02:03:58;25.58;;;15.35;;
75135;SDS011;63707;52.212;9.540;2023-05-08T02:06:26;26.58;;;16.40;;
75135;SDS011;63707;52.212;9.540;2023-05-08T02:08:55;27.70;;;16.27;;
75135;SDS011;63707;52.212;9.540;2023-05-08T02:11:23;28.17;;;15.50;;
75135;SDS011;63707;52.212;9.540;2023-05-08T02:13:50;28.73;;;15.98;;
75135;SDS011;63707;52.212;9.540;2023-05-08T02:16:16;30.88;;;17.83;;
75135;SDS011;63707;52.212;9.540;2023-05-08T02:18:46;26.52;;;15.75;;
75135;SDS011;63707;52.212;9.540;2023-05-08T02:21:15;25.58;;;15.90;;
75135;SDS011;63707;52.212;9.540;2023-05-08T02:23:44;24.48;;;14.90;;
75135;SDS011;63707;52.212;9.540;2023-05-08T02:26:11;28.40;;;15.75;;
75135;SDS011;63707;52.212;9.540;2023-05-08T02:28:39;24.45;;;15.13;;
75135;SDS011;63707;52.212;9.540;2023-05-08T02:31:05;25.15;;;15.70;;
75135;SDS011;63707;52.212;9.540;2023-05-08T02:33:32;27.15;;;15.07;;
75135;SDS011;63707;52.212;9.540;2023-05-08T02:35:58;26.65;;;16.23;;
75135;SDS011;63707;52.212;9.540;2023-05-08T02:38:24;27.25;;;16.33;;
75135;SDS011;63707;52.212;9.540;2023-05-08T02:40:53;24.58;;;14.38;;
75135;SDS011;63707;52.212;9.540;2023-05-08T02:43:22;22.75;;;14.75;;
75135;SDS011;63707;52.212;9.540;2023-05-08T02:45:48;23.70;;;14.45;;
75135;SDS011;63707;52.212;9.540;2023-05-08T02:48:23;24.05;;;14.65;;
75135;SDS011;63707;52.212;9.540;2023-05-08T02:50:56;25.10;;;14.67;;
75135;SDS011;63707;52.212;9.540;2023-05-08T02:53:30;22.63;;;14.55;;
75135;SDS011;63707;52.212;9.540;2023-05-08T02:56:01;24.90;;;15.70;;
75135;SDS011;63707;52.212;9.540;2023-05-08T02:58:33;21.48;;;14.50;;
75135;SDS011;63707;52.212;9.540;2023-05-08T03:01:06;24.05;;;15.23;;
75135;SDS011;63707;52.212;9.540;2023-05-08T03:03:38;23.00;;;14.32;;
75135;SDS011;63707;52.212;9.540;2023-05-08T03:06:07;24.50;;;14.73;;
75135;SDS011;63707;52.212;9.540;2023-05-08T03:08:39;23.40;;;14.32;;
75135;SDS011;63707;52.212;9.540;2023-05-08T03:11:09;24.77;;;14.32;;
75135;SDS011;63707;52.212;9.540;2023-05-08T03:13:39;25.60;;;15.32;;
75135;SDS011;63707;52.212;9.540;2023-05-08T03:16:08;23.30;;;14.10;;
75135;SDS011;63707;52.212;9.540;2023-05-08T03:18:40;26.15;;;14.85;;
75135;SDS011;63707;52.212;9.540;2023-05-08T03:21:09;25.60;;;14.85;;
75135;SDS011;63707;52.212;9.540;2023-05-08T03:23:37;23.35;;;14.52;;
75135;SDS011;63707;52.212;9.540;2023-05-08T03:26:03;24.95;;;15.00;;
75135;SDS011;63707;52.212;9.540;2023-05-08T03:28:33;27.30;;;15.65;;
75135;SDS011;63707;52.212;9.540;2023-05-08T03:31:00;24.92;;;14.63;;
75135;SDS011;63707;52.212;9.540;2023-05-08T03:33:27;24.70;;;15.10;;
75135;SDS011;63707;52.212;9.540;2023-05-08T03:35:55;28.63;;;14.90;;
75135;SDS011;63707;52.212;9.540;2023-05-08T03:38:21;24.75;;;15.50;;
75135;SDS011;63707;52.212;9.540;2023-05-08T03:40:47;24.35;;;15.02;;
75135;SDS011;63707;52.212;9.540;2023-05-08T03:43:13;27.08;;;15.27;;
75135;SDS011;63707;52.212;9.540;2023-05-08T03:45:42;26.92;;;15.98;;
75135;SDS011;63707;52.212;9.540;2023-05-08T03:48:08;25.90;;;15.55;;
75135;SDS011;63707;52.212;9.540;2023-05-08T03:50:35;24.27;;;15.05;;
75135;SDS011;63707;52.212;9.540;2023-05-08T03:53:01;25.80;;;15.25;;
75135;SDS011;63707;52.212;9.540;2023-05-08T03:55:27;26.80;;;16.00;;
75135;SDS011;63707;52.212;9.540;2023-05-08T03:57:55;26.45;;;16.65;;
75135;SDS011;63707;52.212;9.540;2023-05-08T04:00:25;28.38;;;16.60;;
75135;SDS011;63707;52.212;9.540;2023-05-08T04:03:00;25.17;;;15.40;;
75135;SDS011;63707;52.212;9.540;2023-05-08T04:05:35;28.00;;;15.50;;
75135;SDS011;63707;52.212;9.540;2023-05-08T04:08:08;25.67;;;15.52;;
75135;SDS011;63707;52.212;9.540;2023-05-08T04:10:41;25.50;;;15.15;;
75135;SDS011;63707;52.212;9.540;2023-05-08T04:13:13;26.63;;;14.98;;
75135;SDS011;63707;52.212;9.540;2023-05-08T04:15:43;24.30;;;15.27;;
75135;SDS011;63707;52.212;9.540;2023-05-08T04:18:17;25.60;;;15.65;;
75135;SDS011;63707;52.212;9.540;2023-05-08T04:20:47;22.27;;;14.82;;
75135;SDS011;63707;52.212;9.540;2023-05-08T04:23:16;24.00;;;14.70;;
75135;SDS011;63707;52.212;9.540;2023-05-08T04:25:44;23.80;;;15.60;;
75135;SDS011;63707;52.212;9.540;2023-05-08T04:28:12;23.58;;;14.43;;
75135;SDS011;63707;52.212;9.540;2023-05-08T04:30:38;24.27;;;15.38;;
75135;SDS011;63707;52.212;9.540;2023-05-08T04:33:04;21.88;;;14.88;;
75135;SDS011;63707;52.212;9.540;2023-05-08T04:35:33;24.77;;;15.13;;
75135;SDS011;63707;52.212;9.540;2023-05-08T04:37:59;24.70;;;15.10;;
75135;SDS011;63707;52.212;9.540;2023-05-08T04:40:24;25.05;;;14.38;;
75135;SDS011;63707;52.212;9.540;2023-05-08T04:42:50;23.55;;;15.65;;
75135;SDS011;63707;52.212;9.540;2023-05-08T04:45:16;23.00;;;15.10;;
75135;SDS011;63707;52.212;9.540;2023-05-08T04:47:42;25.42;;;14.93;;
75135;SDS011;63707;52.212;9.540;2023-05-08T04:50:08;22.17;;;14.77;;
75135;SDS011;63707;52.212;9.540;2023-05-08T04:52:35;20.50;;;13.57;;
75135;SDS011;63707;52.212;9.540;2023-05-08T04:55:01;21.50;;;13.75;;
75135;SDS011;63707;52.212;9.540;2023-05-08T04:57:26;21.83;;;14.25;;
75135;SDS011;63707;52.212;9.540;2023-05-08T04:59:52;23.90;;;13.98;;
75135;SDS011;63707;52.212;9.540;2023-05-08T05:02:17;21.15;;;13.77;;
75135;SDS011;63707;52.212;9.540;2023-05-08T05:04:43;21.50;;;13.45;;
75135;SDS011;63707;52.212;9.540;2023-05-08T05:07:08;23.67;;;13.77;;
75135;SDS011;63707;52.212;9.540;2023-05-08T05:09:35;23.95;;;14.80;;
75135;SDS011;63707;52.212;9.540;2023-05-08T05:12:02;24.67;;;13.70;;
75135;SDS011;63707;52.212;9.540;2023-05-08T05:14:28;19.70;;;13.32;;
75135;SDS011;63707;52.212;9.540;2023-05-08T05:16:54;18.42;;;13.18;;
75135;SDS011;63707;52.212;9.540;2023-05-08T05:19:19;18.90;;;13.20;;
75135;SDS011;63707;52.212;9.540;2023-05-08T05:21:45;20.30;;;12.98;;
75135;SDS011;63707;52.212;9.540;2023-05-08T05:24:10;19.77;;;13.35;;
75135;SDS011;63707;52.212;9.540;2023-05-08T05:26:37;20.30;;;12.77;;
75135;SDS011;63707;52.212;9.540;2023-05-08T05:29:03;17.90;;;13.05;;
75135;SDS011;63707;52.212;9.540;2023-05-08T05:31:28;22.20;;;13.45;;
75135;SDS011;63707;52.212;9.540;2023-05-08T05:33:54;18.48;;;12.68;;
75135;SDS011;63707;52.212;9.540;2023-05-08T05:36:20;22.67;;;12.88;;
75135;SDS011;63707;52.212;9.540;2023-05-08T05:38:45;19.17;;;12.50;;
75135;SDS011;63707;52.212;9.540;2023-05-08T05:41:11;19.90;;;13.50;;
75135;SDS011;63707;52.212;9.540;2023-05-08T05:43:38;19.13;;;12.82;;
75135;SDS011;63707;52.212;9.540;2023-05-08T05:46:03;19.15;;;12.95;;
75135;SDS011;63707;52.212;9.540;2023-05-08T05:48:30;20.55;;;13.57;;
75135;SDS011;63707;52.212;9.540;2023-05-08T05:50:55;20.85;;;13.35;;
75135;SDS011;63707;52.212;9.540;2023-05-08T05:53:21;19.98;;;13.05;;
75135;SDS011;63707;52.212;9.540;2023-05-08T05:55:46;17.90;;;12.63;;
75135;SDS011;63707;52.212;9.540;2023-05-08T05:58:12;22.90;;;12.75;;
75135;SDS011;63707;52.212;9.540;2023-05-08T06:00:38;18.20;;;12.93;;
75135;SDS011;63707;52.212;9.540;2023-05-08T06:03:04;16.50;;;12.23;;
75135;SDS011;63707;52.212;9.540;2023-05-08T06:05:29;19.33;;;12.48;;
75135;SDS011;63707;52.212;9.540;2023-05-08T06:07:55;18.77;;;12.55;;
75135;SDS011;63707;52.212;9.540;2023-05-08T06:10:21;18.05;;;12.05;;
75135;SDS011;63707;52.212;9.540;2023-05-08T06:12:46;16.23;;;11.57;;
75135;SDS011;63707;52.212;9.540;2023-05-08T06:15:12;18.10;;;11.68;;
75135;SDS011;63707;52.212;9.540;2023-05-08T06:17:40;17.08;;;11.82;;
75135;SDS011;63707;52.212;9.540;2023-05-08T06:20:06;17.77;;;11.45;;
75135;SDS011;63707;52.212;9.540;2023-05-08T06:22:32;17.13;;;12.05;;
75135;SDS011;63707;52.212;9.540;2023-05-08T06:24:58;16.88;;;10.98;;
75135;SDS011;63707;52.212;9.540;2023-05-08T06:27:23;15.00;;;11.77;;
75135;SDS011;63707;52.212;9.540;2023-05-08T06:29:50;15.18;;;11.07;;
75135;SDS011;63707;52.212;9.540;2023-05-08T06:32:17;15.32;;;11.70;;
75135;SDS011;63707;52.212;9.540;2023-05-08T06:34:44;17.33;;;11.77;;
75135;SDS011;63707;52.212;9.540;2023-05-08T06:37:09;16.02;;;10.82;;
75135;SDS011;63707;52.212;9.540;2023-05-08T06:39:35;15.40;;;11.15;;
75135;SDS011;63707;52.212;9.540;2023-05-08T06:42:01;14.52;;;11.13;;
75135;SDS011;63707;52.212;9.540;2023-05-08T06:44:27;16.33;;;11.38;;
75135;SDS011;63707;52.212;9.540;2023-05-08T06:46:53;15.70;;;11.27;;
75135;SDS011;63707;52.212;9.540;2023-05-08T06:49:19;14.57;;;10.32;;
75135;SDS011;63707;52.212;9.540;2023-05-08T06:51:46;15.27;;;10.48;;
75135;SDS011;63707;52.212;9.540;2023-05-08T06:54:11;14.60;;;11.60;;
75135;SDS011;63707;52.212;9.540;2023-05-08T06:56:37;16.10;;;11.23;;
75135;SDS011;63707;52.212;9.540;2023-05-08T06:59:02;14.65;;;10.68;;
75135;SDS011;63707;52.212;9.540;2023-05-08T07:01:28;16.90;;;10.90;;
75135;SDS011;63707;52.212;9.540;2023-05-08T07:03:53;14.70;;;10.82;;
75135;SDS011;63707;52.212;9.540;2023-05-08T07:06:19;13.23;;;10.27;;
75135;SDS011;63707;52.212;9.540;2023-05-08T07:08:46;14.50;;;10.93;;
75135;SDS011;63707;52.212;9.540;2023-05-08T07:11:11;12.95;;;10.07;;
75135;SDS011;63707;52.212;9.540;2023-05-08T07:13:37;13.45;;;10.80;;
75135;SDS011;63707;52.212;9.540;2023-05-08T07:16:07;13.90;;;10.48;;
75135;SDS011;63707;52.212;9.540;2023-05-08T07:18:33;13.18;;;10.52;;
75135;SDS011;63707;52.212;9.540;2023-05-08T07:20:58;15.05;;;10.90;;
75135;SDS011;63707;52.212;9.540;2023-05-08T07:23:24;15.98;;;10.68;;
75135;SDS011;63707;52.212;9.540;2023-05-08T07:25:52;12.93;;;10.52;;
75135;SDS011;63707;52.212;9.540;2023-05-08T07:28:18;13.13;;;10.80;;
75135;SDS011;63707;52.212;9.540;2023-05-08T07:30:44;12.75;;;11.07;;
75135;SDS011;63707;52.212;9.540;2023-05-08T07:33:09;15.18;;;11.15;;
75135;SDS011;63707;52.212;9.540;2023-05-08T07:35:36;11.77;;;9.77;;
75135;SDS011;63707;52.212;9.540;2023-05-08T07:38:02;12.77;;;10.07;;
75135;SDS011;63707;52.212;9.540;2023-05-08T07:40:28;12.85;;;10.20;;
75135;SDS011;63707;52.212;9.540;2023-05-08T07:42:54;13.75;;;11.20;;
75135;SDS011;63707;52.212;9.540;2023-05-08T07:45:20;14.30;;;10.25;;
75135;SDS011;63707;52.212;9.540;2023-05-08T07:47:49;15.13;;;10.43;;
75135;SDS011;63707;52.212;9.540;2023-05-08T07:50:15;13.73;;;10.88;;
75135;SDS011;63707;52.212;9.540;2023-05-08T07:52:41;11.05;;;9.90;;
75135;SDS011;63707;52.212;9.540;2023-05-08T07:55:07;12.05;;;10.63;;
75135;SDS011;63707;52.212;9.540;2023-05-08T07:57:34;12.80;;;9.57;;
75135;SDS011;63707;52.212;9.540;2023-05-08T08:00:03;13.32;;;10.55;;
75135;SDS011;63707;52.212;9.540;2023-05-08T08:02:29;13.95;;;9.98;;
75135;SDS011;63707;52.212;9.540;2023-05-08T08:04:54;11.90;;;9.70;;
75135;SDS011;63707;52.212;9.540;2023-05-08T08:07:20;13.35;;;9.77;;
75135;SDS011;63707;52.212;9.540;2023-05-08T08:09:45;13.40;;;10.23;;
75135;SDS011;63707;52.212;9.540;2023-05-08T08:12:11;12.65;;;9.73;;
75135;SDS011;63707;52.212;9.540;2023-05-08T08:14:36;11.32;;;9.88;;
75135;SDS011;63707;52.212;9.540;2023-05-08T08:17:03;11.95;;;9.73;;
75135;SDS011;63707;52.212;9.540;2023-05-08T08:19:29;13.13;;;10.10;;
75135;SDS011;63707;52.212;9.540;2023-05-08T08:21:54;12.02;;;9.90;;
75135;SDS011;63707;52.212;9.540;2023-05-08T08:24:20;11.43;;;9.68;;
75135;SDS011;63707;52.212;9.540;2023-05-08T08:26:45;11.73;;;9.40;;
75135;SDS011;63707;52.212;9.540;2023-05-08T08:29:11;12.23;;;9.63;;
75135;SDS011;63707;52.212;9.540;2023-05-08T08:31:37;12.55;;;9.50;;
75135;SDS011;63707;52.212;9.540;2023-05-08T08:34:03;12.45;;;10.02;;
75135;SDS011;63707;52.212;9.540;2023-05-08T08:36:29;11.75;;;9.98;;
75135;SDS011;63707;52.212;9.540;2023-05-08T08:38:55;11.82;;;9.48;;
75135;SDS011;63707;52.212;9.540;2023-05-08T08:41:20;12.55;;;9.75;;
75135;SDS011;63707;52.212;9.540;2023-05-08T08:43:47;14.35;;;9.80;;
75135;SDS011;63707;52.212;9.540;2023-05-08T08:46:13;12.18;;;10.10;;
75135;SDS011;63707;52.212;9.540;2023-05-08T08:48:40;12.20;;;9.82;;
75135;SDS011;63707;52.212;9.540;2023-05-08T08:51:11;12.73;;;9.75;;
75135;SDS011;63707;52.212;9.540;2023-05-08T08:53:43;12.23;;;9.85;;
75135;SDS011;63707;52.212;9.540;2023-05-08T08:56:12;13.43;;;9.82;;
75135;SDS011;63707;52.212;9.540;2023-05-08T08:58:42;14.15;;;9.13;;
75135;SDS011;63707;52.212;9.540;2023-05-08T09:01:14;12.05;;;9.45;;
75135;SDS011;63707;52.212;9.540;2023-05-08T09:03:41;11.73;;;9.07;;
75135;SDS011;63707;52.212;9.540;2023-05-08T09:06:07;11.63;;;9.27;;
75135;SDS011;63707;52.212;9.540;2023-05-08T09:08:34;14.50;;;9.77;;
75135;SDS011;63707;52.212;9.540;2023-05-08T09:11:01;15.30;;;10.43;;
75135;SDS011;63707;52.212;9.540;2023-05-08T09:13:27;12.02;;;10.07;;
75135;SDS011;63707;52.212;9.540;2023-05-08T09:15:53;11.18;;;9.73;;
75135;SDS011;63707;52.212;9.540;2023-05-08T09:18:18;13.82;;;9.52;;
75135;SDS011;63707;52.212;9.540;2023-05-08T09:20:44;10.68;;;9.30;;
75135;SDS011;63707;52.212;9.540;2023-05-08T09:23:10;10.43;;;9.32;;
75135;SDS011;63707;52.212;9.540;2023-05-08T09:25:43;11.30;;;9.45;;
75135;SDS011;63707;52.212;9.540;2023-05-08T09:28:15;12.35;;;9.65;;
75135;SDS011;63707;52.212;9.540;2023-05-08T09:30:47;11.15;;;9.18;;
75135;SDS011;63707;52.212;9.540;2023-05-08T09:33:14;13.05;;;9.75;;
75135;SDS011;63707;52.212;9.540;2023-05-08T09:35:40;11.90;;;9.85;;
75135;SDS011;63707;52.212;9.540;2023-05-08T09:38:05;12.48;;;9.07;;
75135;SDS011;63707;52.212;9.540;2023-05-08T09:40:31;10.65;;;9.25;;
75135;SDS011;63707;52.212;9.540;2023-05-08T09:42:59;15.15;;;9.88;;
75135;SDS011;63707;52.212;9.540;2023-05-08T09:45:39;12.10;;;8.95;;
75135;SDS011;63707;52.212;9.540;2023-05-08T09:48:06;10.73;;;9.13;;
75135;SDS011;63707;52.212;9.540;2023-05-08T09:50:34;10.88;;;8.65;;
75135;SDS011;63707;52.212;9.540;2023-05-08T09:53:00;13.00;;;9.20;;
75135;SDS011;63707;52.212;9.540;2023-05-08T09:55:25;10.35;;;8.70;;
75135;SDS011;63707;52.212;9.540;2023-05-08T09:57:52;13.57;;;9.90;;
75135;SDS011;63707;52.212;9.540;2023-05-08T10:00:20;11.13;;;9.18;;
75135;SDS011;63707;52.212;9.540;2023-05-08T10:02:53;11.52;;;9.43;;
75135;SDS011;63707;52.212;9.540;2023-05-08T10:05:23;11.55;;;9.20;;
75135;SDS011;63707;52.212;9.540;2023-05-08T10:07:50;11.38;;;9.30;;
75135;SDS011;63707;52.212;9.540;2023-05-08T10:10:21;10.43;;;8.70;;
75135;SDS011;63707;52.212;9.540;2023-05-08T10:12:47;12.13;;;8.70;;
75135;SDS011;63707;52.212;9.540;2023-05-08T10:15:12;10.48;;;9.07;;
75135;SDS011;63707;52.212;9.540;2023-05-08T10:17:41;10.85;;;8.75;;
75135;SDS011;63707;52.212;9.540;2023-05-08T10:20:13;11.13;;;8.60;;
75135;SDS011;63707;52.212;9.540;2023-05-08T10:22:41;10.93;;;8.23;;
75135;SDS011;63707;52.212;9.540;2023-05-08T10:25:09;12.35;;;8.15;;
75135;SDS011;63707;52.212;9.540;2023-05-08T10:27:42;10.05;;;8.52;;
75135;SDS011;63707;52.212;9.540;2023-05-08T10:30:12;13.60;;;8.75;;
75135;SDS011;63707;52.212;9.540;2023-05-08T10:32:43;10.23;;;8.68;;
75135;SDS011;63707;52.212;9.540;2023-05-08T10:35:10;10.23;;;7.68;;
75135;SDS011;63707;52.212;9.540;2023-05-08T10:37:36;8.57;;;7.68;;
75135;SDS011;63707;52.212;9.540;2023-05-08T10:40:03;9.48;;;7.65;;
75135;SDS011;63707;52.212;9.540;2023-05-08T10:42:31;9.10;;;7.90;;
75135;SDS011;63707;52.212;9.540;2023-05-08T10:44:58;9.43;;;8.25;;
75135;SDS011;63707;52.212;9.540;2023-05-08T10:47:26;8.48;;;7.57;;
75135;SDS011;63707;52.212;9.540;2023-05-08T10:49:59;10.70;;;8.10;;
75135;SDS011;63707;52.212;9.540;2023-05-08T10:52:31;8.93;;;7.90;;
75135;SDS011;63707;52.212;9.540;2023-05-08T10:55:13;10.55;;;9.18;;
75135;SDS011;63707;52.212;9.540;2023-05-08T10:58:05;11.45;;;7.57;;
75135;SDS011;63707;52.212;9.540;2023-05-08T11:03:38;9.65;;;7.97;;
75135;SDS011;63707;52.212;9.540;2023-05-08T11:06:07;9.73;;;7.95;;
75135;SDS011;63707;52.212;9.540;2023-05-08T11:08:37;10.90;;;7.97;;
75135;SDS011;63707;52.212;9.540;2023-05-08T11:11:09;10.20;;;7.97;;
75135;SDS011;63707;52.212;9.540;2023-05-08T11:13:41;9.40;;;7.72;;
75135;SDS011;63707;52.212;9.540;2023-05-08T11:16:11;8.52;;;7.60;;
75135;SDS011;63707;52.212;9.540;2023-05-08T11:18:36;9.50;;;8.38;;
75135;SDS011;63707;52.212;9.540;2023-05-08T11:21:03;8.95;;;6.80;;
75135;SDS011;63707;52.212;9.540;2023-05-08T11:23:31;10.65;;;7.80;;
75135;SDS011;63707;52.212;9.540;2023-05-08T11:25:58;8.85;;;7.30;;
75135;SDS011;63707;52.212;9.540;2023-05-08T11:28:25;8.45;;;6.90;;
75135;SDS011;63707;52.212;9.540;2023-05-08T11:30:52;8.82;;;7.25;;
75135;SDS011;63707;52.212;9.540;2023-05-08T11:33:21;10.40;;;8.10;;
75135;SDS011;63707;52.212;9.540;2023-05-08T11:35:49;9.70;;;7.28;;
75135;SDS011;63707;52.212;9.540;2023-05-08T11:38:16;8.85;;;7.28;;
75135;SDS011;63707;52.212;9.540;2023-05-08T11:40:45;8.82;;;7.65;;
75135;SDS011;63707;52.212;9.540;2023-05-08T11:43:22;10.40;;;7.60;;
75135;SDS011;63707;52.212;9.540;2023-05-08T11:45:50;8.15;;;7.03;;
75135;SDS011;63707;52.212;9.540;2023-05-08T11:48:16;10.52;;;7.50;;
75135;SDS011;63707;52.212;9.540;2023-05-08T11:50:43;9.02;;;7.85;;
75135;SDS011;63707;52.212;9.540;2023-05-08T11:53:08;8.52;;;6.97;;
75135;SDS011;63707;52.212;9.540;2023-05-08T11:55:34;11.13;;;7.40;;
75135;SDS011;63707;52.212;9.540;2023-05-08T11:58:02;8.00;;;7.15;;
75135;SDS011;63707;52.212;9.540;2023-05-08T12:00:39;8.48;;;7.28;;
75135;SDS011;63707;52.212;9.540;2023-05-08T12:03:05;9.55;;;7.47;;
75135;SDS011;63707;52.212;9.540;2023-05-08T12:05:31;11.85;;;7.50;;
75135;SDS011;63707;52.212;9.540;2023-05-08T12:07:58;9.10;;;7.70;;
75135;SDS011;63707;52.212;9.540;2023-05-08T12:10:23;8.60;;;7.28;;
75135;SDS011;63707;52.212;9.540;2023-05-08T12:12:49;9.13;;;8.15;;
75135;SDS011;63707;52.212;9.540;2023-05-08T12:15:16;9.15;;;7.07;;
75135;SDS011;63707;52.212;9.540;2023-05-08T12:17:41;8.63;;;7.53;;
75135;SDS011;63707;52.212;9.540;2023-05-08T12:20:10;9.57;;;7.88;;
75135;SDS011;63707;52.212;9.540;2023-05-08T12:22:37;8.77;;;7.88;;
75135;SDS011;63707;52.212;9.540;2023-05-08T12:25:03;9.25;;;7.15;;
75135;SDS011;63707;52.212;9.540;2023-05-08T12:27:29;10.00;;;7.35;;
75135;SDS011;63707;52.212;9.540;2023-05-08T12:29:56;15.25;;;8.48;;
75135;SDS011;63707;52.212;9.540;2023-05-08T12:32:23;10.82;;;8.82;;
75135;SDS011;63707;52.212;9.540;2023-05-08T12:34:48;9.15;;;8.20;;
75135;SDS011;63707;52.212;9.540;2023-05-08T12:37:21;11.40;;;8.98;;
75135;SDS011;63707;52.212;9.540;2023-05-08T12:39:47;9.87;;;8.13;;
75135;SDS011;63707;52.212;9.540;2023-05-08T12:42:13;11.68;;;8.13;;
75135;SDS011;63707;52.212;9.540;2023-05-08T12:44:39;10.98;;;8.57;;
75135;SDS011;63707;52.212;9.540;2023-05-08T12:47:05;11.98;;;8.07;;
75135;SDS011;63707;52.212;9.540;2023-05-08T12:49:32;9.68;;;8.23;;
75135;SDS011;63707;52.212;9.540;2023-05-08T12:52:01;8.45;;;7.07;;
75135;SDS011;63707;52.212;9.540;2023-05-08T12:54:31;9.75;;;7.80;;
75135;SDS011;63707;52.212;9.540;2023-05-08T12:56:57;11.02;;;7.88;;
75135;SDS011;63707;52.212;9.540;2023-05-08T12:59:27;10.48;;;7.40;;
75135;SDS011;63707;52.212;9.540;2023-05-08T13:01:52;9.55;;;7.57;;
75135;SDS011;63707;52.212;9.540;2023-05-08T13:04:18;11.32;;;7.90;;
75135;SDS011;63707;52.212;9.540;2023-05-08T13:06:53;10.60;;;7.63;;
75135;SDS011;63707;52.212;9.540;2023-05-08T13:09:19;9.10;;;7.78;;
75135;SDS011;63707;52.212;9.540;2023-05-08T13:11:45;9.07;;;7.90;;
75135;SDS011;63707;52.212;9.540;2023-05-08T13:14:11;10.27;;;8.55;;
75135;SDS011;63707;52.212;9.540;2023-05-08T13:16:43;8.55;;;7.65;;
75135;SDS011;63707;52.212;9.540;2023-05-08T13:19:08;9.75;;;7.97;;
75135;SDS011;63707;52.212;9.540;2023-05-08T13:21:34;10.30;;;8.30;;
75135;SDS011;63707;52.212;9.540;2023-05-08T13:24:01;11.50;;;8.80;;
75135;SDS011;63707;52.212;9.540;2023-05-08T13:26:27;9.40;;;7.50;;
75135;SDS011;63707;52.212;9.540;2023-05-08T13:28:53;10.85;;;7.65;;
75135;SDS011;63707;52.212;9.540;2023-05-08T13:31:18;8.77;;;6.90;;
75135;SDS011;63707;52.212;9.540;2023-05-08T13:33:44;8.80;;;7.30;;
75135;SDS011;63707;52.212;9.540;2023-05-08T13:36:09;9.20;;;7.68;;
75135;SDS011;63707;52.212;9.540;2023-05-08T13:38:35;9.98;;;7.82;;
75135;SDS011;63707;52.212;9.540;2023-05-08T13:41:02;8.30;;;7.47;;
75135;SDS011;63707;52.212;9.540;2023-05-08T13:43:27;11.10;;;8.07;;
75135;SDS011;63707;52.212;9.540;2023-05-08T13:45:52;10.02;;;7.35;;
75135;SDS011;63707;52.212;9.540;2023-05-08T13:48:18;9.82;;;7.45;;
75135;SDS011;63707;52.212;9.540;2023-05-08T13:50:44;9.40;;;7.72;;
75135;SDS011;63707;52.212;9.540;2023-05-08T13:53:09;8.68;;;7.78;;
75135;SDS011;63707;52.212;9.540;2023-05-08T13:55:35;10.15;;;7.22;;
75135;SDS011;63707;52.212;9.540;2023-05-08T13:58:02;9.68;;;7.70;;
75135;SDS011;63707;52.212;9.540;2023-05-08T14:00:27;9.30;;;7.25;;
75135;SDS011;63707;52.212;9.540;2023-05-08T14:02:53;10.50;;;8.43;;
75135;SDS011;63707;52.212;9.540;2023-05-08T14:05:19;8.70;;;7.80;;
75135;SDS011;63707;52.212;9.540;2023-05-08T14:07:44;10.55;;;6.75;;
75135;SDS011;63707;52.212;9.540;2023-05-08T14:10:10;7.95;;;6.50;;
75135;SDS011;63707;52.212;9.540;2023-05-08T14:12:38;9.50;;;7.25;;
75135;SDS011;63707;52.212;9.540;2023-05-08T14:15:06;10.02;;;7.35;;
75135;SDS011;63707;52.212;9.540;2023-05-08T14:17:32;9.77;;;7.05;;
75135;SDS011;63707;52.212;9.540;2023-05-08T14:19:58;9.75;;;7.40;;
75135;SDS011;63707;52.212;9.540;2023-05-08T14:22:24;10.05;;;6.60;;
75135;SDS011;63707;52.212;9.540;2023-05-08T14:24:49;10.10;;;7.07;;
75135;SDS011;63707;52.212;9.540;2023-05-08T14:27:15;10.05;;;6.85;;
75135;SDS011;63707;52.212;9.540;2023-05-08T14:29:40;9.93;;;6.90;;
75135;SDS011;63707;52.212;9.540;2023-05-08T14:32:07;9.68;;;7.38;;
75135;SDS011;63707;52.212;9.540;2023-05-08T14:34:35;8.55;;;7.50;;